createdAt,value
2019-01-23T00:23:22.333Z,69.90
2019-01-23T02:35:13.218Z,15.47
2019-01-23T08:09:22.243Z,36.50
2019-01-23T08:28:42.405Z,927.30
2019-01-23T08:30:46.736Z,583.00
2019-01-23T08:32:51.796Z,406.57
2019-01-23T08:34:56.112Z,528.83
2019-01-23T08:37:02.598Z,1168.23
2019-01-23T08:39:13.306Z,1325.10
2019-01-23T08:41:20.812Z,1311.17
2019-01-23T08:43:26.869Z,1165.17
2019-01-23T08:45:31.736Z,1344.80
2019-01-23T09:06:46.542Z,512.97
2019-01-23T09:50:44.334Z,721.67
2019-01-23T10:29:33.097Z,728.47
2019-01-23T11:04:22.781Z,575.33
2019-01-23T11:19:53.313Z,386.03
2019-01-23T11:22:16.585Z,1078.33
2019-01-23T11:24:25.268Z,1454.17
2019-01-23T11:37:38.642Z,261.87
2019-01-23T11:39:43.608Z,116.40
2019-01-23T11:41:48.261Z,82.03
2019-01-23T11:43:52.922Z,56.37
2019-01-23T11:45:57.741Z,52.13
2019-01-23T11:48:04.761Z,47.10
2019-01-23T11:50:12.747Z,43.40
2019-01-23T11:52:18.135Z,309.13
2019-01-23T11:54:25.995Z,893.67
2019-01-23T11:56:30.952Z,600.30
2019-01-23T11:58:37.574Z,636.20
2019-01-23T12:00:43.011Z,940.60
2019-01-23T12:02:52.258Z,1586.10
2019-01-23T12:05:00.182Z,1206.63
2019-01-23T12:07:10.082Z,943.47
2019-01-23T12:09:16.125Z,812.67
2019-01-23T12:11:30.255Z,694.63
2019-01-23T12:13:36.517Z,567.13
2019-01-23T12:15:43.508Z,451.73
2019-01-23T12:17:48.928Z,238.27
2019-01-23T12:19:58.781Z,152.30
2019-01-23T12:22:05.809Z,130.47
2019-01-23T12:24:13.184Z,596.13
2019-01-23T12:26:28.629Z,1195.50
2019-01-23T12:28:33.126Z,1560.63
2019-01-23T12:30:38.146Z,958.57
2019-01-23T12:32:42.833Z,604.77
2019-01-23T12:37:59.383Z,234.27
2019-01-23T17:02:15.754Z,106.37
2019-01-23T17:04:20.052Z,75.63
2019-01-23T17:06:24.776Z,66.30
2019-01-23T17:08:29.177Z,68.30
2019-01-23T17:10:33.426Z,58.70
2019-01-23T17:12:37.917Z,53.40
2019-01-23T17:14:42.085Z,54.63
2019-01-23T17:16:46.347Z,53.40
2019-01-23T17:18:50.937Z,53.43
2019-01-23T17:20:55.171Z,53.97
2019-01-23T17:22:59.720Z,48.37
2019-01-23T17:31:00.228Z,50.53
2019-01-23T18:41:54.585Z,47.87
2019-01-23T19:03:48.164Z,52.33
2019-01-23T19:29:18.113Z,59.80
2019-01-23T19:36:54.010Z,62.37
2019-01-23T19:41:47.532Z,58.37
2019-01-23T19:44:05.876Z,64.83
2019-01-23T19:49:19.309Z,65.47
2019-01-23T20:54:40.947Z,71.90
2019-01-23T20:56:46.845Z,78.47
2019-01-23T20:59:03.994Z,68.50
2019-01-23T21:01:12.638Z,68.10
2019-01-23T21:03:20.824Z,67.47
2019-01-23T21:05:31.308Z,67.90
2019-01-23T21:07:38.578Z,66.43
2019-01-23T21:09:45.002Z,67.37
2019-01-23T21:11:55.647Z,66.60
2019-01-23T21:14:00.685Z,86.70
2019-01-23T21:16:07.674Z,74.07
2019-01-23T21:18:13.953Z,65.23
2019-01-23T21:20:22.602Z,64.30
2019-01-23T21:22:32.852Z,139.27
2019-01-23T21:24:40.453Z,661.07
2019-01-23T21:26:45.866Z,653.40
2019-01-23T21:28:57.684Z,603.53
2019-01-23T21:31:07.023Z,789.73
2019-01-23T21:33:12.885Z,916.17
2019-01-23T21:35:17.422Z,973.63
2019-01-23T21:37:27.091Z,1106.33
2019-01-23T21:39:32.315Z,930.70
2019-01-23T21:41:40.510Z,642.17
2019-01-23T23:28:35.414Z,524.73
2019-01-23T23:41:32.245Z,1165.80
